Time;durP1;ratioP1;P1;durP2;ratioP2;P2;SDS_P1;SDS_P2;PMS_P1;PMS_P2;Temp;Humidity;BMP_temperature;BMP_pressure;BME280_temperature;BME280_humidity;BME280_pressure;Samples;Min_cycle;Max_cycle;Signal;HPM_P1;HPM_P2
2023/05/14 02:47:42;;;;;;;17.10;13.50;;;;;;;7.33;63.22;101188.03;211383;1283;612497;-72
2023/05/14 02:52:35;;;;;;;15.00;12.50;;;;;;;7.20;63.60;101192.54;214565;1264;61364;-72
2023/05/14 02:57:28;;;;;;;15.20;12.50;;;;;;;7.03;63.90;101192.77;214718;1264;59266;-72
2023/05/14 03:02:21;;;;;;;13.00;11.20;;;;;;;6.91;64.01;101193.50;214600;1263;59447;-72
2023/05/14 03:07:15;;;;;;;13.30;10.90;;;;;;;6.83;64.36;101191.14;214539;1264;73181;-71
2023/05/14 03:12:08;;;;;;;12.50;10.40;;;;;;;6.79;64.64;101193.04;214658;1264;72605;-72
2023/05/14 03:17:02;;;;;;;14.70;11.40;;;;;;;6.75;64.54;101190.64;214587;1268;60109;-72
2023/05/14 03:21:55;;;;;;;13.70;11.30;;;;;;;6.73;64.74;101188.98;214569;1263;68139;-71
2023/05/14 03:26:48;;;;;;;11.30;10.10;;;;;;;6.72;64.91;101187.05;215437;1257;59188;-72
2023/05/14 03:31:42;;;;;;;13.80;11.00;;;;;;;6.74;65.18;101185.39;215431;1258;59296;-72
2023/05/14 03:36:36;;;;;;;14.00;11.70;;;;;;;6.76;65.28;101181.17;215297;1257;71378;-72
2023/05/14 03:41:29;;;;;;;13.10;10.90;;;;;;;6.89;65.30;101183.25;215400;1257;59704;-71
2023/05/14 03:46:22;;;;;;;15.10;11.40;;;;;;;7.18;65.18;101181.79;215330;1257;59764;-72
2023/05/14 03:51:15;;;;;;;13.50;11.10;;;;;;;7.33;65.13;101178.71;215346;1259;59772;-72
2023/05/14 03:56:08;;;;;;;15.30;11.50;;;;;;;7.41;65.21;101173.15;215486;1257;59771;-71
2023/05/14 04:01:01;;;;;;;11.90;10.50;;;;;;;7.48;65.42;101165.48;215317;1257;59663;-72
2023/05/14 04:05:53;;;;;;;14.50;10.90;;;;;;;7.54;65.59;101161.58;215476;1257;59624;-72
2023/05/14 04:10:46;;;;;;;13.80;10.90;;;;;;;7.61;65.53;101166.83;215390;1260;59619;-71
2023/05/14 04:15:39;;;;;;;15.40;11.60;;;;;;;7.68;65.77;101168.61;215445;1257;59616;-72
2023/05/14 04:20:33;;;;;;;15.20;10.60;;;;;;;7.74;65.76;101169.02;215387;1257;70821;-72
2023/05/14 04:25:26;;;;;;;11.50;10.30;;;;;;;7.81;65.98;101170.96;215358;1257;71116;-72
2023/05/14 04:30:23;;;;;;;13.30;10.60;;;;;;;7.92;66.20;101172.42;215417;1257;60959;-72
2023/05/14 04:35:16;;;;;;;14.10;10.90;;;;;;;8.01;66.47;101174.11;215157;1258;67231;-72
2023/05/14 04:40:11;;;;;;;12.90;9.90;;;;;;;8.12;66.47;101167.71;215382;1257;59730;-72
2023/05/14 04:45:07;;;;;;;11.60;9.60;;;;;;;8.26;66.75;101167.70;215279;1259;72980;-71
2023/05/14 04:50:00;;;;;;;12.10;10.10;;;;;;;8.42;66.78;101169.42;215305;1257;74425;-72
2023/05/14 04:54:53;;;;;;;13.10;10.20;;;;;;;8.56;66.94;101170.63;215255;1257;59661;-72
2023/05/14 04:59:46;;;;;;;14.50;9.70;;;;;;;8.73;66.83;101168.21;215323;1257;59737;-72
2023/05/14 05:04:39;;;;;;;12.10;10.10;;;;;;;8.91;66.77;101171.18;215436;1259;59730;-72
2023/05/14 05:09:32;;;;;;;12.60;10.40;;;;;;;9.10;66.82;101168.30;215293;1257;59726;-71
2023/05/14 05:14:29;;;;;;;11.30;9.30;;;;;;;9.32;66.72;101165.50;215403;1257;71367;-72
2023/05/14 05:19:25;;;;;;;11.40;8.50;;;;;;;9.56;66.38;101161.15;215358;1262;60257;-71
2023/05/14 05:24:31;;;;;;;14.60;10.00;;;;;;;9.81;66.30;101155.98;215407;1257;67290;-71
2023/05/14 05:29:25;;;;;;;11.50;9.10;;;;;;;10.07;65.93;101156.99;215176;1258;59721;-72
2023/05/14 05:34:19;;;;;;;12.20;8.00;;;;;;;10.38;65.60;101152.61;215325;1257;72990;-72
2023/05/14 05:39:12;;;;;;;13.00;8.40;;;;;;;10.78;65.27;101149.07;215425;1257;59787;-72
2023/05/14 05:44:05;;;;;;;13.10;8.20;;;;;;;11.09;64.74;101150.27;215253;1257;59649;-72
2023/05/14 05:48:59;;;;;;;11.50;7.60;;;;;;;11.36;64.38;101152.42;215358;1257;65332;-72
2023/05/14 05:53:52;;;;;;;8.00;6.70;;;;;;;11.63;63.81;101147.05;215382;1257;59658;-72
2023/05/14 05:58:45;;;;;;;11.00;7.70;;;;;;;11.91;63.42;101148.80;215410;1257;72735;-73
2023/05/14 06:03:40;;;;;;;13.10;8.20;;;;;;;12.28;62.69;101152.43;215301;1257;59640;-72
2023/05/14 06:08:34;;;;;;;9.90;6.90;;;;;;;13.07;61.49;101147.34;215375;1262;59652;-72
2023/05/14 06:13:27;;;;;;;9.80;6.90;;;;;;;14.83;58.81;101135.71;215288;1259;66820;-72
2023/05/14 06:18:23;;;;;;;13.70;7.00;;;;;;;15.31;57.75;101134.76;215440;1257;63274;-72
2023/05/14 06:23:19;;;;;;;11.50;6.90;;;;;;;16.59;56.09;101135.24;215368;1257;73506;-72
2023/05/14 06:28:14;;;;;;;10.10;6.60;;;;;;;18.97;52.34;101128.00;215683;1256;72581;-73
2023/05/14 06:33:07;;;;;;;7.70;6.60;;;;;;;19.20;51.70;101132.13;215674;1256;59608;-72
2023/05/14 06:38:00;;;;;;;7.90;5.80;;;;;;;19.56;50.43;101126.74;215865;1255;68112;-73
2023/05/14 06:42:53;;;;;;;7.20;6.10;;;;;;;19.74;48.91;101123.87;215814;1253;59695;-72
2023/05/14 06:47:46;;;;;;;6.70;5.50;;;;;;;19.58;48.51;101119.34;215689;1253;73932;-72
2023/05/14 06:52:39;;;;;;;6.90;5.40;;;;;;;19.50;47.76;101118.02;216309;1253;59618;-72
2023/05/14 06:57:47;;;;;;;7.80;4.60;;;;;;;19.77;46.69;101114.50;216099;1252;59610;-72
2023/05/14 07:02:51;;;;;;;7.50;4.50;;;;;;;20.31;44.57;101112.25;216153;1253;67403;-72
2023/05/14 07:07:50;;;;;;;7.60;4.60;;;;;;;21.17;42.72;101106.39;215985;1257;59766;-72
2023/05/14 07:12:49;;;;;;;6.90;4.70;;;;;;;22.66;40.34;101105.05;216098;1253;74375;-73
2023/05/14 07:17:53;;;;;;;6.40;4.20;;;;;;;23.32;38.97;101107.48;216076;1253;71108;-72
2023/05/14 07:22:55;;;;;;;8.30;4.20;;;;;;;23.92;36.97;101100.62;216097;1257;60996;-73
2023/05/14 07:28:08;;;;;;;4.50;3.90;;;;;;;26.31;33.92;101092.05;216088;1253;68121;-73
2023/05/14 07:33:32;;;;;;;5.70;4.10;;;;;;;29.65;30.73;101090.40;215845;1255;60157;-73
2023/05/14 07:39:05;;;;;;;5.60;3.90;;;;;;;32.04;28.74;101084.21;215998;1253;72948;-73
2023/05/14 07:43:58;;;;;;;7.40;4.10;;;;;;;34.23;26.42;101081.67;215449;1256;73127;-73
2023/05/14 07:49:05;;;;;;;5.50;3.30;;;;;;;35.40;24.45;101079.85;215441;1256;59751;-74
2023/05/14 07:54:17;;;;;;;6.30;3.90;;;;;;;34.13;24.23;101078.33;215397;1256;66184;-73
2023/05/14 07:59:34;;;;;;;5.50;3.50;;;;;;;32.66;24.10;101078.08;215461;1256;59740;-73
2023/05/14 08:04:29;;;;;;;4.90;3.50;;;;;;;32.08;23.65;101067.61;215574;1256;73393;-73
2023/05/14 08:09:22;;;;;;;4.00;3.50;;;;;;;31.11;24.33;101060.95;215871;1253;74702;-72
2023/05/14 08:14:14;;;;;;;3.60;3.30;;;;;;;31.73;23.96;101059.98;215882;1253;59700;-72
2023/05/14 08:19:07;;;;;;;3.70;3.20;;;;;;;32.30;23.06;101059.02;215630;1253;59862;-72
2023/05/14 08:24:00;;;;;;;5.40;3.40;;;;;;;30.61;23.75;101052.54;215834;1253;60920;-72
2023/05/14 08:28:54;;;;;;;3.40;3.00;;;;;;;28.57;25.32;101049.56;215851;1253;59712;-72
2023/05/14 08:33:47;;;;;;;5.70;3.00;;;;;;;29.58;23.71;101040.34;216129;1255;73588;-72
2023/05/14 08:38:40;;;;;;;3.30;2.80;;;;;;;31.22;22.62;101039.47;215776;1257;59860;-73
2023/05/14 08:43:55;;;;;;;4.10;2.80;;;;;;;29.62;23.08;101037.52;215755;1253;65728;-73
2023/05/14 08:48:51;;;;;;;4.60;3.40;;;;;;;27.74;24.46;101036.84;215921;1256;59726;-72
2023/05/14 08:53:44;;;;;;;5.40;2.90;;;;;;;26.86;25.53;101028.79;215827;1254;72456;-73
2023/05/14 08:58:37;;;;;;;4.00;3.20;;;;;;;26.51;26.32;101026.98;215870;1253;72868;-73
2023/05/14 09:03:31;;;;;;;3.50;2.50;;;;;;;26.26;26.33;101030.18;215794;1256;59733;-73
2023/05/14 09:08:24;;;;;;;4.40;2.90;;;;;;;26.35;25.96;101026.08;215933;1253;67949;-72
2023/05/14 09:13:16;;;;;;;5.90;3.20;;;;;;;26.62;25.93;101016.34;215992;1253;59684;-72
2023/05/14 09:18:09;;;;;;;2.70;2.50;;;;;;;26.62;26.43;101016.35;215953;1256;59673;-73
2023/05/14 09:23:02;;;;;;;4.20;2.90;;;;;;;26.85;25.86;101011.42;215975;1253;72595;-73
2023/05/14 09:27:57;;;;;;;7.20;3.10;;;;;;;28.87;24.76;101005.26;215971;1253;61033;-73
2023/05/14 09:32:53;;;;;;;3.00;2.80;;;;;;;30.33;23.35;101006.67;215833;1253;66476;-72
2023/05/14 09:37:52;;;;;;;6.50;2.90;;;;;;;32.50;21.32;101006.17;215841;1253;59653;-73
2023/05/14 09:42:47;;;;;;;3.50;2.70;;;;;;;33.78;20.22;101002.44;215916;1256;72841;-73
2023/05/14 09:47:39;;;;;;;3.50;2.30;;;;;;;35.02;19.55;101000.43;215967;1253;72425;-73
2023/05/14 09:52:34;;;;;;;3.20;2.30;;;;;;;35.77;18.51;100999.11;215813;1255;61083;-73
2023/05/14 09:57:27;;;;;;;3.20;2.60;;;;;;;36.40;17.84;100993.67;215941;1256;66108;-73
2023/05/14 10:02:36;;;;;;;3.70;2.50;;;;;;;36.88;18.03;100986.73;215976;1253;61232;-73
2023/05/14 10:07:35;;;;;;;2.80;2.50;;;;;;;37.17;17.06;100983.23;215977;1253;72704;-73
2023/05/14 10:12:32;;;;;;;2.90;2.60;;;;;;;37.12;16.74;100972.48;216019;1253;71170;-73
2023/05/14 10:17:31;;;;;;;4.50;2.30;;;;;;;36.92;16.50;100972.61;215960;1253;61128;-73
2023/05/14 10:22:30;;;;;;;2.60;2.30;;;;;;;34.17;17.76;100969.03;215899;1253;66805;-73
2023/05/14 10:27:24;;;;;;;6.00;2.50;;;;;;;32.85;18.62;100973.70;216012;1253;59845;-73
2023/05/14 10:32:23;;;;;;;3.30;2.50;;;;;;;33.22;18.46;100965.04;215983;1256;71528;-73
2023/05/14 10:37:18;;;;;;;5.10;2.90;;;;;;;34.16;18.07;100962.10;215800;1257;72518;-73
2023/05/14 10:42:27;;;;;;;5.40;2.80;;;;;;;32.11;18.68;100962.02;216022;1253;60515;-73
2023/05/14 10:47:20;;;;;;;3.00;2.60;;;;;;;32.33;19.00;100956.05;215835;1253;66905;-73
2023/05/14 10:52:12;;;;;;;5.10;2.50;;;;;;;30.44;20.02;100949.91;216063;1253;59715;-73
2023/05/14 10:57:11;;;;;;;9.10;3.20;;;;;;;30.02;21.11;100937.02;216043;1253;59827;-73
2023/05/14 11:02:05;;;;;;;5.10;2.60;;;;;;;29.94;21.12;100930.11;216013;1253;72356;-73
2023/05/14 11:07:00;;;;;;;3.80;2.30;;;;;;;31.37;20.27;100928.56;215942;1257;60415;-72
2023/05/14 11:11:53;;;;;;;3.10;2.40;;;;;;;31.19;20.16;100912.40;216039;1253;67356;-73
2023/05/14 11:16:47;;;;;;;3.50;2.50;;;;;;;30.38;20.33;100901.16;215948;1257;60547;-73
2023/05/14 11:21:40;;;;;;;4.20;2.60;;;;;;;30.15;20.61;100894.02;215884;1253;75157;-73
2023/05/14 11:26:33;;;;;;;3.00;2.40;;;;;;;30.19;20.42;100891.23;215776;1253;60586;-73
2023/05/14 11:31:27;;;;;;;3.20;2.40;;;;;;;30.09;20.97;100885.46;215773;1253;60432;-73
2023/05/14 11:36:20;;;;;;;4.30;2.10;;;;;;;29.34;20.87;100868.48;215812;1253;66951;-73
2023/05/14 11:41:14;;;;;;;3.10;2.60;;;;;;;28.73;21.71;100874.67;215929;1253;60681;-73
2023/05/14 11:46:07;;;;;;;3.30;2.10;;;;;;;28.61;21.97;100862.70;215983;1256;73725;-72
2023/05/14 11:51:00;;;;;;;3.80;2.80;;;;;;;28.58;22.09;100848.81;215908;1253;71370;-73
2023/05/14 11:55:56;;;;;;;8.00;2.10;;;;;;;28.30;22.12;100843.70;215894;1253;60449;-73
2023/05/14 12:00:55;;;;;;;3.20;2.40;;;;;;;27.72;22.35;100843.42;215831;1256;67042;-72
2023/05/14 12:06:02;;;;;;;2.60;2.20;;;;;;;27.63;22.50;100827.13;215729;1253;60204;-72
2023/05/14 12:10:55;;;;;;;3.60;2.40;;;;;;;27.63;22.43;100819.45;215790;1253;75030;-73
2023/05/14 12:15:54;;;;;;;2.80;2.60;;;;;;;27.84;23.03;100810.36;215998;1256;71262;-73
2023/05/14 12:20:50;;;;;;;3.20;2.50;;;;;;;28.16;22.93;100799.06;218180;1253;59453;-72
2023/05/14 12:25:52;;;;;;;6.50;2.50;;;;;;;28.32;23.13;100796.73;215721;1253;67090;-72
2023/05/14 12:30:46;;;;;;;11.10;3.20;;;;;;;28.07;22.62;100791.89;215895;1255;60492;-72
2023/05/14 12:35:39;;;;;;;5.80;2.40;;;;;;;28.02;22.60;100790.39;215832;1256;73070;-72
2023/05/14 12:40:32;;;;;;;3.70;2.50;;;;;;;27.58;22.47;100784.33;215889;1254;72353;-73
2023/05/14 12:45:25;;;;;;;4.60;2.70;;;;;;;27.27;22.67;100785.02;215852;1254;60364;-73
2023/05/14 12:50:18;;;;;;;2.70;2.10;;;;;;;27.17;23.10;100781.27;215866;1255;60505;-73
2023/05/14 12:55:11;;;;;;;2.60;2.00;;;;;;;26.58;23.18;100778.89;215871;1255;60446;-73
2023/05/14 13:00:06;;;;;;;5.60;2.50;;;;;;;26.29;23.42;100773.14;215931;1256;60470;-73
2023/05/14 13:05:01;;;;;;;4.10;2.10;;;;;;;26.45;23.51;100766.70;215855;1253;72683;-73
2023/05/14 13:09:54;;;;;;;3.60;1.90;;;;;;;25.80;23.99;100770.40;215874;1257;61772;-72
2023/05/14 13:14:47;;;;;;;3.30;2.30;;;;;;;25.91;24.29;100761.06;215870;1254;66441;-73
2023/05/14 13:19:40;;;;;;;4.90;2.10;;;;;;;25.83;23.86;100757.52;215824;1254;61859;-72
2023/05/14 13:24:34;;;;;;;3.70;2.10;;;;;;;26.05;23.74;100752.92;215923;1253;60680;-73
2023/05/14 13:29:28;;;;;;;3.00;2.30;;;;;;;26.76;23.98;100744.73;216028;1253;72444;-73
2023/05/14 13:34:21;;;;;;;3.30;2.00;;;;;;;27.24;23.18;100729.52;215963;1253;61195;-73
2023/05/14 13:39:14;;;;;;;3.60;2.50;;;;;;;27.44;22.91;100732.03;215923;1256;60408;-72
2023/05/14 13:44:07;;;;;;;4.50;2.50;;;;;;;27.48;22.63;100730.24;215905;1257;60478;-73
2023/05/14 13:48:59;;;;;;;4.20;2.60;;;;;;;27.49;22.63;100726.64;215904;1254;60466;-73
2023/05/14 13:53:52;;;;;;;5.20;1.90;;;;;;;27.39;22.64;100721.08;215727;1255;60546;-72
2023/05/14 13:58:46;;;;;;;3.10;1.80;;;;;;;27.08;22.90;100721.98;215900;1256;60657;-72
2023/05/14 14:03:39;;;;;;;4.50;2.40;;;;;;;26.56;23.05;100721.21;215877;1254;60453;-73
2023/05/14 14:08:31;;;;;;;2.90;2.20;;;;;;;26.81;22.99;100704.65;215850;1256;60462;-72
2023/05/14 14:13:24;;;;;;;3.30;2.20;;;;;;;26.91;22.88;100691.88;215933;1256;60535;-72
2023/05/14 14:18:17;;;;;;;4.00;2.40;;;;;;;27.00;23.39;100685.39;215897;1257;60501;-73
2023/05/14 14:23:10;;;;;;;4.70;2.50;;;;;;;27.07;23.48;100674.67;215878;1254;60649;-73
2023/05/14 14:28:03;;;;;;;3.60;2.70;;;;;;;27.12;23.38;100671.23;215936;1255;60472;-72
2023/05/14 14:32:56;;;;;;;2.10;1.80;;;;;;;27.17;23.05;100668.50;215881;1256;60451;-72
2023/05/14 14:37:51;;;;;;;6.00;2.10;;;;;;;27.20;23.46;100656.73;215837;1255;60454;-72
2023/05/14 14:42:44;;;;;;;2.80;2.40;;;;;;;27.17;23.48;100646.45;215861;1256;72135;-72
2023/05/14 14:47:37;;;;;;;2.30;1.90;;;;;;;27.08;23.44;100641.23;215724;1256;137337;-72
2023/05/14 14:52:30;;;;;;;3.10;2.10;;;;;;;26.85;23.13;100639.41;215855;1257;67321;-73
2023/05/14 14:57:23;;;;;;;3.90;2.70;;;;;;;26.80;23.47;100639.82;215877;1257;60472;-72
2023/05/14 15:02:16;;;;;;;2.60;2.20;;;;;;;26.87;23.80;100636.82;215922;1256;60453;-72
2023/05/14 15:07:09;;;;;;;3.30;2.10;;;;;;;26.76;23.66;100639.69;215969;1254;60550;-72
2023/05/14 15:12:02;;;;;;;3.50;2.30;;;;;;;26.60;23.60;100631.98;215842;1253;60406;-72
2023/05/14 15:16:54;;;;;;;3.30;2.10;;;;;;;26.32;24.04;100635.14;215903;1254;60441;-72
2023/05/14 15:21:47;;;;;;;4.60;2.20;;;;;;;25.73;23.98;100640.26;215887;1254;60460;-72
2023/05/14 15:26:41;;;;;;;2.30;2.10;;;;;;;25.24;24.34;100633.29;215972;1254;60442;-72
2023/05/14 15:31:34;;;;;;;2.60;2.40;;;;;;;25.23;24.63;100629.61;216035;1254;73565;-72
2023/05/14 15:36:27;;;;;;;3.10;2.10;;;;;;;25.27;24.69;100624.12;215863;1253;60460;-72
2023/05/14 15:41:20;;;;;;;4.70;2.70;;;;;;;25.23;24.60;100623.42;215838;1253;66408;-72
2023/05/14 15:46:13;;;;;;;3.80;2.20;;;;;;;24.96;24.82;100612.90;215970;1256;60417;-72
2023/05/14 15:51:06;;;;;;;4.20;2.40;;;;;;;24.63;25.10;100607.56;215928;1254;60424;-72
2023/05/14 15:55:59;;;;;;;5.20;3.20;;;;;;;24.39;25.33;100616.41;215790;1254;60437;-72
2023/05/14 16:00:51;;;;;;;3.60;2.20;;;;;;;24.28;25.48;100611.73;215921;1254;59633;-72
2023/05/14 16:05:45;;;;;;;4.50;2.50;;;;;;;24.26;25.51;100605.08;215805;1255;60397;-72
2023/05/14 16:10:38;;;;;;;2.80;2.20;;;;;;;24.27;25.80;100598.48;215987;1254;60454;-72
2023/05/14 16:15:31;;;;;;;2.60;2.40;;;;;;;24.11;25.84;100593.83;215860;1254;60452;-72
2023/05/14 16:20:24;;;;;;;4.20;2.40;;;;;;;23.97;25.96;100593.16;215799;1253;60442;-72
2023/05/14 16:25:18;;;;;;;4.30;2.50;;;;;;;23.88;26.24;100596.70;215856;1254;60502;-72
2023/05/14 16:30:11;;;;;;;4.90;2.60;;;;;;;23.89;26.51;100594.71;215818;1254;66231;-72
2023/05/14 16:35:04;;;;;;;4.30;2.40;;;;;;;23.93;26.50;100580.75;215807;1254;61041;-72
2023/05/14 16:39:57;;;;;;;3.40;3.00;;;;;;;23.90;26.45;100571.66;215833;1254;74073;-72
2023/05/14 16:44:50;;;;;;;5.00;2.50;;;;;;;23.81;26.65;100570.61;215891;1253;72395;-72
2023/05/14 16:49:43;;;;;;;3.80;2.60;;;;;;;23.69;26.91;100565.74;216054;1255;60514;-72
2023/05/14 16:54:36;;;;;;;4.20;2.30;;;;;;;23.55;27.08;100569.64;215914;1255;60416;-72
2023/05/14 16:59:29;;;;;;;7.80;2.50;;;;;;;23.42;27.49;100568.73;215793;1253;60538;-72
2023/05/14 17:04:23;;;;;;;6.80;2.60;;;;;;;23.31;27.70;100565.46;215884;1254;60431;-72
2023/05/14 17:09:16;;;;;;;5.90;2.90;;;;;;;23.13;27.82;100561.02;215770;1254;72999;-72
2023/05/14 17:14:09;;;;;;;4.30;2.50;;;;;;;22.98;28.30;100555.38;215989;1253;60422;-72
2023/05/14 17:19:02;;;;;;;4.30;2.30;;;;;;;22.76;28.58;100550.35;216028;1254;60467;-72
2023/05/14 17:23:55;;;;;;;4.60;2.50;;;;;;;22.49;28.96;100551.12;216116;1253;60469;-72
2023/05/14 17:28:48;;;;;;;11.00;3.30;;;;;;;22.16;29.84;100555.39;216034;1254;60399;-72
2023/05/14 17:33:41;;;;;;;3.90;3.00;;;;;;;21.85;30.56;100563.29;215783;1254;61121;-72
2023/05/14 17:38:35;;;;;;;5.20;2.70;;;;;;;21.52;31.04;100569.77;215868;1253;60391;-72
2023/05/14 17:43:28;;;;;;;6.90;3.70;;;;;;;21.25;31.68;100570.58;216104;1256;68020;-72
2023/05/14 17:48:21;;;;;;;4.10;3.10;;;;;;;20.98;32.38;100564.48;215998;1256;60453;-73
2023/05/14 17:53:14;;;;;;;9.70;3.80;;;;;;;20.71;32.75;100556.41;216002;1256;74532;-72
2023/05/14 17:58:07;;;;;;;12.70;3.00;;;;;;;20.45;33.62;100555.33;216030;1256;70212;-72
2023/05/14 18:03:00;;;;;;;4.00;2.60;;;;;;;20.20;33.82;100551.94;215900;1256;60520;-73
2023/05/14 18:07:53;;;;;;;3.20;2.70;;;;;;;19.93;33.98;100554.18;216089;1253;60433;-72
2023/05/14 18:12:46;;;;;;;7.40;3.30;;;;;;;19.70;34.39;100551.90;215584;1253;60562;-72
2023/05/14 18:17:39;;;;;;;12.80;3.50;;;;;;;19.48;35.13;100549.90;215671;1253;60469;-72
2023/05/14 18:22:33;;;;;;;17.40;8.60;;;;;;;19.21;35.83;100548.22;215667;1252;60377;-72
2023/05/14 18:27:26;;;;;;;16.40;5.50;;;;;;;18.98;36.37;100554.86;215809;1256;60916;-72
2023/05/14 18:32:19;;;;;;;7.90;4.30;;;;;;;18.76;37.77;100556.66;215672;1254;60549;-72
2023/05/14 18:37:13;;;;;;;13.00;4.40;;;;;;;18.57;38.28;100558.95;215588;1253;60545;-72
2023/05/14 18:42:06;;;;;;;12.60;4.60;;;;;;;18.36;38.44;100560.39;215715;1256;73556;-72
2023/05/14 18:46:59;;;;;;;13.30;4.90;;;;;;;18.15;39.01;100562.14;215739;1253;72415;-72
2023/05/14 18:51:52;;;;;;;9.70;3.90;;;;;;;17.97;39.50;100557.36;215664;1253;60560;-72
2023/05/14 18:56:45;;;;;;;4.90;3.90;;;;;;;17.81;39.92;100559.85;215738;1254;67104;-73
2023/05/14 19:01:39;;;;;;;12.80;4.20;;;;;;;17.67;40.71;100565.66;215669;1253;60464;-72
2023/05/14 19:06:32;;;;;;;6.50;3.70;;;;;;;17.55;41.36;100564.61;215440;1254;74375;-73
2023/05/14 19:11:25;;;;;;;18.30;5.80;;;;;;;17.40;41.32;100557.99;215528;1253;72606;-73
2023/05/14 19:16:18;;;;;;;6.10;3.70;;;;;;;17.20;41.52;100556.67;215584;1253;60559;-73
2023/05/14 19:21:13;;;;;;;5.80;3.70;;;;;;;17.03;41.94;100551.10;215603;1252;60415;-73
2023/05/14 19:26:07;;;;;;;8.20;4.00;;;;;;;16.87;42.15;100546.03;215545;1253;60440;-73
2023/05/14 19:31:00;;;;;;;12.90;4.00;;;;;;;16.72;42.93;100541.28;215747;1253;71331;-72
2023/05/14 19:35:52;;;;;;;6.60;4.00;;;;;;;16.58;42.91;100534.95;215789;1255;60508;-72
2023/05/14 19:40:45;;;;;;;11.90;3.70;;;;;;;16.46;43.35;100534.23;215879;1253;60616;-72
2023/05/14 19:45:38;;;;;;;8.20;3.60;;;;;;;16.32;43.67;100534.70;215954;1253;60460;-72
2023/05/14 19:50:32;;;;;;;9.50;5.00;;;;;;;16.18;44.11;100529.23;216111;1253;60530;-72
2023/05/14 19:55:25;;;;;;;5.90;4.40;;;;;;;16.07;44.29;100528.11;216102;1253;75107;-72
2023/05/14 20:00:18;;;;;;;8.70;4.30;;;;;;;15.97;44.62;100530.11;215928;1252;73844;-73
2023/05/14 20:05:11;;;;;;;7.60;4.10;;;;;;;15.86;44.72;100531.24;216137;1253;60467;-72
2023/05/14 20:10:04;;;;;;;7.30;5.20;;;;;;;15.70;44.84;100527.14;216033;1253;66861;-73
2023/05/14 20:14:57;;;;;;;5.60;4.40;;;;;;;15.58;45.12;100522.14;215933;1253;60464;-72
2023/05/14 20:19:51;;;;;;;6.50;4.50;;;;;;;15.50;45.44;100520.29;216005;1253;60443;-72
2023/05/14 20:24:44;;;;;;;10.90;5.30;;;;;;;15.44;45.78;100514.91;216041;1253;71576;-73
2023/05/14 20:29:37;;;;;;;8.70;5.20;;;;;;;15.37;46.00;100514.77;216137;1255;60741;-72
2023/05/14 20:34:30;;;;;;;6.20;5.00;;;;;;;15.32;46.45;100514.63;216270;1252;65351;-72
2023/05/14 20:39:23;;;;;;;7.70;5.70;;;;;;;15.24;46.56;100506.64;216075;1253;60479;-72
2023/05/14 20:44:16;;;;;;;9.80;6.20;;;;;;;15.14;47.76;100498.14;215951;1253;74411;-72
2023/05/14 20:49:12;;;;;;;9.70;5.70;;;;;;;15.06;48.27;100495.73;216078;1254;72678;-72
2023/05/14 20:54:05;;;;;;;10.50;6.90;;;;;;;14.97;49.21;100486.20;216071;1253;60576;-73
2023/05/14 20:58:59;;;;;;;7.20;6.40;;;;;;;14.89;49.92;100478.38;215978;1253;60436;-73
2023/05/14 21:03:51;;;;;;;7.50;5.80;;;;;;;14.82;50.32;100477.70;215846;1253;60464;-72
2023/05/14 21:08:45;;;;;;;13.80;7.80;;;;;;;14.77;50.60;100467.77;216091;1253;73739;-71
2023/05/14 21:13:37;;;;;;;7.70;6.90;;;;;;;14.72;50.91;100467.45;215958;1253;60456;-72
2023/05/14 21:18:31;;;;;;;7.70;6.40;;;;;;;14.68;50.93;100460.48;215858;1253;60473;-72
2023/05/14 21:23:24;;;;;;;10.70;7.00;;;;;;;14.66;51.09;100457.88;216015;1252;65806;-72
2023/05/14 21:28:17;;;;;;;12.60;7.90;;;;;;;14.64;51.51;100453.02;216005;1253;60467;-72
2023/05/14 21:33:10;;;;;;;11.30;6.70;;;;;;;14.61;51.79;100450.74;216004;1252;60557;-71
2023/05/14 21:38:03;;;;;;;12.30;7.10;;;;;;;14.58;52.34;100452.67;215932;1253;60550;-72
2023/05/14 21:42:55;;;;;;;12.00;7.00;;;;;;;14.56;52.64;100450.39;215980;1253;60717;-72
2023/05/14 21:47:49;;;;;;;9.40;6.30;;;;;;;14.51;52.97;100446.04;215997;1255;65560;-72
2023/05/14 21:52:42;;;;;;;8.40;6.60;;;;;;;14.47;53.20;100443.09;215977;1253;60469;-73
2023/05/14 21:57:35;;;;;;;12.20;7.10;;;;;;;14.42;53.54;100437.00;215851;1253;73649;-72
2023/05/14 22:02:28;;;;;;;10.70;7.10;;;;;;;14.38;53.77;100437.37;215838;1253;60451;-72
2023/05/14 22:07:21;;;;;;;8.10;6.50;;;;;;;14.35;53.66;100431.45;216061;1256;60402;-71
2023/05/14 22:12:14;;;;;;;11.40;6.40;;;;;;;14.35;54.00;100424.81;216008;1252;60477;-72
2023/05/14 22:17:07;;;;;;;7.10;6.30;;;;;;;14.31;53.91;100423.08;216179;1252;60499;-72
2023/05/14 22:22:00;;;;;;;11.60;7.50;;;;;;;14.26;54.16;100419.79;216090;1253;60565;-72
2023/05/14 22:26:52;;;;;;;11.40;6.20;;;;;;;14.22;54.09;100413.36;216087;1252;60527;-72
2023/05/14 22:31:45;;;;;;;9.90;6.30;;;;;;;14.19;54.24;100406.72;216142;1253;60579;-71
2023/05/14 22:36:38;;;;;;;8.40;5.80;;;;;;;14.19;53.77;100405.34;216090;1252;60432;-72
2023/05/14 22:41:31;;;;;;;5.10;4.50;;;;;;;14.18;54.13;100394.02;216135;1253;60540;-72
2023/05/14 22:46:24;;;;;;;5.90;5.30;;;;;;;14.18;53.54;100390.01;216107;1253;60521;-72
2023/05/14 22:51:17;;;;;;;9.10;5.60;;;;;;;14.18;53.58;100383.73;215968;1253;60473;-72
2023/05/14 22:56:10;;;;;;;9.10;5.30;;;;;;;14.17;53.40;100378.33;216048;1253;60457;-72
2023/05/14 23:01:03;;;;;;;7.00;4.70;;;;;;;14.18;53.23;100374.84;215998;1252;60450;-71
2023/05/14 23:05:56;;;;;;;6.10;4.40;;;;;;;14.18;52.92;100364.21;216220;1253;60570;-71
2023/05/14 23:10:49;;;;;;;5.10;4.70;;;;;;;14.16;52.96;100358.81;216025;1252;60541;-72
2023/05/14 23:15:42;;;;;;;7.50;5.00;;;;;;;14.15;52.83;100354.64;216122;1253;60586;-72
2023/05/14 23:20:35;;;;;;;6.30;4.70;;;;;;;14.14;52.77;100350.45;216011;1253;60524;-72
2023/05/14 23:25:28;;;;;;;3.90;3.50;;;;;;;14.16;53.03;100342.42;216136;1252;60487;-71
2023/05/14 23:30:21;;;;;;;7.00;4.00;;;;;;;14.16;52.52;100336.50;216049;1255;60470;-72
2023/05/14 23:35:14;;;;;;;4.50;3.60;;;;;;;14.17;52.53;100329.70;216152;1252;60563;-72
2023/05/14 23:40:08;;;;;;;6.30;3.40;;;;;;;14.19;52.01;100313.65;215989;1253;60549;-72
2023/05/14 23:45:01;;;;;;;7.90;4.20;;;;;;;14.21;52.38;100312.61;216302;1253;60431;-72
2023/05/14 23:49:54;;;;;;;4.90;3.40;;;;;;;14.22;52.27;100302.15;216284;1251;60304;-72
2023/05/14 23:54:47;;;;;;;5.20;3.20;;;;;;;14.23;52.26;100300.23;215965;1253;60447;-72
2023/05/14 23:59:40;;;;;;;5.20;3.30;;;;;;;14.23;51.99;100292.72;216017;1252;60569;-72
